sensor_id;sensor_type;location;lat;lon;timestamp;P1;durP1;ratioP1;P2;durP2;ratioP2
73168;SDS011;61379;59.732;30.468;2024-03-02T00:00:31;9.27;;;8.57;;
73168;SDS011;61379;59.732;30.468;2024-03-02T00:02:58;9.40;;;8.77;;
73168;SDS011;61379;59.732;30.468;2024-03-02T00:05:25;9.60;;;8.90;;
73168;SDS011;61379;59.732;30.468;2024-03-02T00:07:52;9.93;;;9.23;;
73168;SDS011;61379;59.732;30.468;2024-03-02T00:10:22;10.23;;;9.52;;
73168;SDS011;61379;59.732;30.468;2024-03-02T00:12:50;9.93;;;9.23;;
73168;SDS011;61379;59.732;30.468;2024-03-02T00:15:27;9.32;;;8.63;;
73168;SDS011;61379;59.732;30.468;2024-03-02T00:17:59;9.23;;;8.52;;
73168;SDS011;61379;59.732;30.468;2024-03-02T00:20:25;9.15;;;8.55;;
73168;SDS011;61379;59.732;30.468;2024-03-02T00:22:53;9.23;;;8.63;;
73168;SDS011;61379;59.732;30.468;2024-03-02T00:25:25;10.15;;;9.43;;
73168;SDS011;61379;59.732;30.468;2024-03-02T00:27:51;9.43;;;8.65;;
73168;SDS011;61379;59.732;30.468;2024-03-02T00:30:29;9.70;;;9.10;;
73168;SDS011;61379;59.732;30.468;2024-03-02T00:33:05;9.75;;;9.10;;
73168;SDS011;61379;59.732;30.468;2024-03-02T00:35:33;9.23;;;8.63;;
73168;SDS011;61379;59.732;30.468;2024-03-02T00:38:03;9.73;;;9.05;;
73168;SDS011;61379;59.732;30.468;2024-03-02T00:40:31;10.23;;;9.40;;
73168;SDS011;61379;59.732;30.468;2024-03-02T00:42:58;10.55;;;9.70;;
73168;SDS011;61379;59.732;30.468;2024-03-02T00:45:25;10.45;;;9.57;;
73168;SDS011;61379;59.732;30.468;2024-03-02T00:47:53;9.85;;;9.10;;
73168;SDS011;61379;59.732;30.468;2024-03-02T00:50:20;10.18;;;9.38;;
73168;SDS011;61379;59.732;30.468;2024-03-02T00:52:47;10.13;;;9.32;;
73168;SDS011;61379;59.732;30.468;2024-03-02T00:55:14;9.77;;;9.07;;
73168;SDS011;61379;59.732;30.468;2024-03-02T00:57:43;9.98;;;9.18;;
73168;SDS011;61379;59.732;30.468;2024-03-02T01:00:10;10.20;;;9.50;;
73168;SDS011;61379;59.732;30.468;2024-03-02T01:02:40;9.55;;;8.90;;
73168;SDS011;61379;59.732;30.468;2024-03-02T01:05:09;10.45;;;9.52;;
73168;SDS011;61379;59.732;30.468;2024-03-02T01:07:37;10.50;;;9.75;;
73168;SDS011;61379;59.732;30.468;2024-03-02T01:10:05;10.73;;;10.02;;
73168;SDS011;61379;59.732;30.468;2024-03-02T01:12:32;11.02;;;10.15;;
73168;SDS011;61379;59.732;30.468;2024-03-02T01:15:00;10.05;;;9.25;;
73168;SDS011;61379;59.732;30.468;2024-03-02T01:17:29;9.52;;;8.88;;
73168;SDS011;61379;59.732;30.468;2024-03-02T01:19:56;9.73;;;9.02;;
73168;SDS011;61379;59.732;30.468;2024-03-02T01:22:23;9.52;;;8.82;;
73168;SDS011;61379;59.732;30.468;2024-03-02T01:24:51;9.77;;;9.00;;
73168;SDS011;61379;59.732;30.468;2024-03-02T01:27:18;9.70;;;8.90;;
73168;SDS011;61379;59.732;30.468;2024-03-02T01:29:45;10.07;;;9.27;;
73168;SDS011;61379;59.732;30.468;2024-03-02T01:32:14;9.75;;;8.95;;
73168;SDS011;61379;59.732;30.468;2024-03-02T01:34:41;9.68;;;8.88;;
73168;SDS011;61379;59.732;30.468;2024-03-02T01:37:08;9.70;;;8.98;;
73168;SDS011;61379;59.732;30.468;2024-03-02T01:39:35;9.68;;;8.98;;
73168;SDS011;61379;59.732;30.468;2024-03-02T01:42:02;10.43;;;9.63;;
73168;SDS011;61379;59.732;30.468;2024-03-02T01:44:29;10.23;;;9.52;;
73168;SDS011;61379;59.732;30.468;2024-03-02T01:46:55;10.07;;;9.45;;
73168;SDS011;61379;59.732;30.468;2024-03-02T01:49:24;10.02;;;9.27;;
73168;SDS011;61379;59.732;30.468;2024-03-02T01:51:51;10.13;;;9.32;;
73168;SDS011;61379;59.732;30.468;2024-03-02T01:54:18;9.73;;;9.02;;
73168;SDS011;61379;59.732;30.468;2024-03-02T01:56:44;9.48;;;8.77;;
73168;SDS011;61379;59.732;30.468;2024-03-02T01:59:12;9.52;;;8.73;;
73168;SDS011;61379;59.732;30.468;2024-03-02T02:01:38;10.52;;;9.63;;
73168;SDS011;61379;59.732;30.468;2024-03-02T02:04:06;9.95;;;9.18;;
73168;SDS011;61379;59.732;30.468;2024-03-02T02:06:34;9.88;;;8.98;;
73168;SDS011;61379;59.732;30.468;2024-03-02T02:09:01;9.07;;;8.38;;
73168;SDS011;61379;59.732;30.468;2024-03-02T02:11:28;8.60;;;8.00;;
73168;SDS011;61379;59.732;30.468;2024-03-02T02:13:55;9.70;;;8.82;;
73168;SDS011;61379;59.732;30.468;2024-03-02T02:16:22;8.77;;;8.07;;
73168;SDS011;61379;59.732;30.468;2024-03-02T02:18:49;9.57;;;8.70;;
73168;SDS011;61379;59.732;30.468;2024-03-02T02:21:16;9.70;;;8.80;;
73168;SDS011;61379;59.732;30.468;2024-03-02T02:23:44;9.70;;;8.98;;
73168;SDS011;61379;59.732;30.468;2024-03-02T02:26:13;9.52;;;8.73;;
73168;SDS011;61379;59.732;30.468;2024-03-02T02:28:40;9.35;;;8.57;;
73168;SDS011;61379;59.732;30.468;2024-03-02T02:31:12;9.77;;;9.00;;
73168;SDS011;61379;59.732;30.468;2024-03-02T02:33:39;10.68;;;9.68;;
73168;SDS011;61379;59.732;30.468;2024-03-02T02:36:06;10.68;;;9.77;;
73168;SDS011;61379;59.732;30.468;2024-03-02T02:38:33;10.27;;;9.38;;
73168;SDS011;61379;59.732;30.468;2024-03-02T02:41:03;10.23;;;9.43;;
73168;SDS011;61379;59.732;30.468;2024-03-02T02:43:30;10.63;;;9.68;;
73168;SDS011;61379;59.732;30.468;2024-03-02T02:45:57;9.60;;;8.90;;
73168;SDS011;61379;59.732;30.468;2024-03-02T02:48:24;10.18;;;9.30;;
73168;SDS011;61379;59.732;30.468;2024-03-02T02:50:50;9.15;;;8.35;;
73168;SDS011;61379;59.732;30.468;2024-03-02T02:53:17;9.75;;;8.95;;
73168;SDS011;61379;59.732;30.468;2024-03-02T02:55:44;10.30;;;9.50;;
73168;SDS011;61379;59.732;30.468;2024-03-02T02:58:12;10.20;;;9.27;;
73168;SDS011;61379;59.732;30.468;2024-03-02T03:00:40;10.20;;;9.38;;
73168;SDS011;61379;59.732;30.468;2024-03-02T03:03:06;9.70;;;8.98;;
73168;SDS011;61379;59.732;30.468;2024-03-02T03:05:33;10.05;;;9.25;;
73168;SDS011;61379;59.732;30.468;2024-03-02T03:08:00;10.25;;;9.43;;
73168;SDS011;61379;59.732;30.468;2024-03-02T03:10:28;10.55;;;9.60;;
73168;SDS011;61379;59.732;30.468;2024-03-02T03:12:55;10.40;;;9.60;;
73168;SDS011;61379;59.732;30.468;2024-03-02T03:15:23;10.93;;;10.00;;
73168;SDS011;61379;59.732;30.468;2024-03-02T03:17:50;11.30;;;10.40;;
73168;SDS011;61379;59.732;30.468;2024-03-02T03:20:17;11.88;;;9.98;;
73168;SDS011;61379;59.732;30.468;2024-03-02T03:22:46;11.57;;;10.50;;
73168;SDS011;61379;59.732;30.468;2024-03-02T03:25:13;10.80;;;9.80;;
73168;SDS011;61379;59.732;30.468;2024-03-02T03:27:40;10.15;;;9.38;;
73168;SDS011;61379;59.732;30.468;2024-03-02T03:30:07;9.93;;;9.23;;
73168;SDS011;61379;59.732;30.468;2024-03-02T03:32:36;10.27;;;9.43;;
73168;SDS011;61379;59.732;30.468;2024-03-02T03:35:03;9.70;;;8.82;;
73168;SDS011;61379;59.732;30.468;2024-03-02T03:37:30;9.20;;;8.50;;
73168;SDS011;61379;59.732;30.468;2024-03-02T03:39:58;9.73;;;8.98;;
73168;SDS011;61379;59.732;30.468;2024-03-02T03:42:25;9.88;;;9.05;;
73168;SDS011;61379;59.732;30.468;2024-03-02T03:44:52;9.90;;;9.00;;
73168;SDS011;61379;59.732;30.468;2024-03-02T03:47:18;10.73;;;9.80;;
73168;SDS011;61379;59.732;30.468;2024-03-02T03:49:47;10.40;;;9.63;;
73168;SDS011;61379;59.732;30.468;2024-03-02T03:52:14;11.10;;;10.13;;
73168;SDS011;61379;59.732;30.468;2024-03-02T03:54:41;9.43;;;8.73;;
73168;SDS011;61379;59.732;30.468;2024-03-02T03:57:08;10.38;;;9.57;;
73168;SDS011;61379;59.732;30.468;2024-03-02T03:59:35;10.18;;;9.35;;
73168;SDS011;61379;59.732;30.468;2024-03-02T04:02:02;10.30;;;9.40;;
73168;SDS011;61379;59.732;30.468;2024-03-02T04:04:29;10.25;;;9.45;;
73168;SDS011;61379;59.732;30.468;2024-03-02T04:06:58;10.25;;;9.50;;
73168;SDS011;61379;59.732;30.468;2024-03-02T04:09:24;11.20;;;10.20;;
73168;SDS011;61379;59.732;30.468;2024-03-02T04:11:52;9.88;;;9.18;;
73168;SDS011;61379;59.732;30.468;2024-03-02T04:14:19;10.30;;;9.48;;
73168;SDS011;61379;59.732;30.468;2024-03-02T04:16:46;10.85;;;9.85;;
73168;SDS011;61379;59.732;30.468;2024-03-02T04:19:13;11.18;;;10.27;;
73168;SDS011;61379;59.732;30.468;2024-03-02T04:21:40;10.90;;;10.00;;
73168;SDS011;61379;59.732;30.468;2024-03-02T04:24:08;10.43;;;9.63;;
73168;SDS011;61379;59.732;30.468;2024-03-02T04:26:35;10.40;;;9.60;;
73168;SDS011;61379;59.732;30.468;2024-03-02T04:29:02;10.98;;;10.18;;
73168;SDS011;61379;59.732;30.468;2024-03-02T04:31:29;10.85;;;10.07;;
73168;SDS011;61379;59.732;30.468;2024-03-02T04:33:55;11.18;;;10.43;;
73168;SDS011;61379;59.732;30.468;2024-03-02T04:36:22;10.38;;;9.68;;
73168;SDS011;61379;59.732;30.468;2024-03-02T04:38:49;11.00;;;10.20;;
73168;SDS011;61379;59.732;30.468;2024-03-02T04:41:17;10.25;;;9.52;;
73168;SDS011;61379;59.732;30.468;2024-03-02T04:43:44;10.25;;;9.55;;
73168;SDS011;61379;59.732;30.468;2024-03-02T04:46:11;10.85;;;10.05;;
73168;SDS011;61379;59.732;30.468;2024-03-02T04:48:38;11.45;;;10.65;;
73168;SDS011;61379;59.732;30.468;2024-03-02T04:51:05;10.85;;;9.95;;
73168;SDS011;61379;59.732;30.468;2024-03-02T04:53:31;10.43;;;9.63;;
73168;SDS011;61379;59.732;30.468;2024-03-02T04:55:58;10.57;;;9.63;;
73168;SDS011;61379;59.732;30.468;2024-03-02T04:58:47;11.30;;;10.30;;
73168;SDS011;61379;59.732;30.468;2024-03-02T05:01:14;10.13;;;9.43;;
73168;SDS011;61379;59.732;30.468;2024-03-02T05:03:43;10.90;;;10.00;;
73168;SDS011;61379;59.732;30.468;2024-03-02T05:06:10;11.05;;;10.15;;
73168;SDS011;61379;59.732;30.468;2024-03-02T05:08:37;10.57;;;9.88;;
73168;SDS011;61379;59.732;30.468;2024-03-02T05:11:04;10.98;;;10.27;;
73168;SDS011;61379;59.732;30.468;2024-03-02T05:13:46;11.50;;;10.63;;
73168;SDS011;61379;59.732;30.468;2024-03-02T05:16:13;11.82;;;10.93;;
73168;SDS011;61379;59.732;30.468;2024-03-02T05:18:40;11.10;;;10.32;;
73168;SDS011;61379;59.732;30.468;2024-03-02T05:21:07;11.98;;;10.95;;
73168;SDS011;61379;59.732;30.468;2024-03-02T05:23:34;11.10;;;10.30;;
73168;SDS011;61379;59.732;30.468;2024-03-02T05:26:00;11.73;;;10.73;;
73168;SDS011;61379;59.732;30.468;2024-03-02T05:28:28;11.32;;;10.52;;
73168;SDS011;61379;59.732;30.468;2024-03-02T05:30:56;11.00;;;10.20;;
73168;SDS011;61379;59.732;30.468;2024-03-02T05:33:23;10.75;;;9.85;;
73168;SDS011;61379;59.732;30.468;2024-03-02T05:35:50;10.50;;;9.60;;
73168;SDS011;61379;59.732;30.468;2024-03-02T05:38:16;10.60;;;9.85;;
73168;SDS011;61379;59.732;30.468;2024-03-02T05:40:43;11.43;;;10.57;;
73168;SDS011;61379;59.732;30.468;2024-03-02T05:43:10;11.05;;;10.15;;
73168;SDS011;61379;59.732;30.468;2024-03-02T05:45:37;11.00;;;10.30;;
73168;SDS011;61379;59.732;30.468;2024-03-02T05:48:06;9.98;;;9.38;;
73168;SDS011;61379;59.732;30.468;2024-03-02T05:50:34;10.70;;;10.00;;
73168;SDS011;61379;59.732;30.468;2024-03-02T05:53:01;10.60;;;9.80;;
73168;SDS011;61379;59.732;30.468;2024-03-02T05:55:28;11.05;;;10.30;;
73168;SDS011;61379;59.732;30.468;2024-03-02T05:57:54;11.63;;;10.82;;
73168;SDS011;61379;59.732;30.468;2024-03-02T06:00:37;11.20;;;10.50;;
73168;SDS011;61379;59.732;30.468;2024-03-02T06:03:04;11.20;;;10.40;;
73168;SDS011;61379;59.732;30.468;2024-03-02T06:05:32;11.43;;;10.52;;
73168;SDS011;61379;59.732;30.468;2024-03-02T06:07:59;11.02;;;10.13;;
73168;SDS011;61379;59.732;30.468;2024-03-02T06:10:26;10.50;;;9.80;;
73168;SDS011;61379;59.732;30.468;2024-03-02T06:12:53;10.65;;;9.95;;
73168;SDS011;61379;59.732;30.468;2024-03-02T06:15:20;10.30;;;9.55;;
73168;SDS011;61379;59.732;30.468;2024-03-02T06:17:47;10.50;;;9.80;;
73168;SDS011;61379;59.732;30.468;2024-03-02T06:20:13;11.15;;;10.35;;
73168;SDS011;61379;59.732;30.468;2024-03-02T06:22:42;10.40;;;9.63;;
73168;SDS011;61379;59.732;30.468;2024-03-02T06:25:09;10.30;;;9.48;;
73168;SDS011;61379;59.732;30.468;2024-03-02T06:27:36;10.82;;;10.13;;
73168;SDS011;61379;59.732;30.468;2024-03-02T06:30:03;11.68;;;10.77;;
73168;SDS011;61379;59.732;30.468;2024-03-02T06:32:30;11.02;;;10.23;;
73168;SDS011;61379;59.732;30.468;2024-03-02T06:34:57;10.93;;;10.20;;
73168;SDS011;61379;59.732;30.468;2024-03-02T06:37:25;10.70;;;9.90;;
73168;SDS011;61379;59.732;30.468;2024-03-02T06:39:53;11.60;;;10.60;;
73168;SDS011;61379;59.732;30.468;2024-03-02T06:42:20;11.27;;;10.38;;
73168;SDS011;61379;59.732;30.468;2024-03-02T06:44:47;10.40;;;9.70;;
73168;SDS011;61379;59.732;30.468;2024-03-02T06:47:13;10.43;;;9.63;;
73168;SDS011;61379;59.732;30.468;2024-03-02T06:49:42;10.90;;;10.00;;
73168;SDS011;61379;59.732;30.468;2024-03-02T06:52:08;10.63;;;9.82;;
73168;SDS011;61379;59.732;30.468;2024-03-02T06:54:36;11.35;;;10.35;;
73168;SDS011;61379;59.732;30.468;2024-03-02T06:57:04;10.38;;;9.52;;
73168;SDS011;61379;59.732;30.468;2024-03-02T06:59:31;10.15;;;9.32;;
73168;SDS011;61379;59.732;30.468;2024-03-02T07:01:58;10.93;;;10.02;;
73168;SDS011;61379;59.732;30.468;2024-03-02T07:04:26;10.45;;;9.65;;
73168;SDS011;61379;59.732;30.468;2024-03-02T07:06:53;9.77;;;9.18;;
73168;SDS011;61379;59.732;30.468;2024-03-02T07:09:20;10.68;;;9.88;;
73168;SDS011;61379;59.732;30.468;2024-03-02T07:11:48;9.65;;;9.05;;
73168;SDS011;61379;59.732;30.468;2024-03-02T07:14:16;10.73;;;9.88;;
73168;SDS011;61379;59.732;30.468;2024-03-02T07:16:43;10.60;;;9.75;;
73168;SDS011;61379;59.732;30.468;2024-03-02T07:19:10;11.18;;;10.27;;
73168;SDS011;61379;59.732;30.468;2024-03-02T07:21:37;10.20;;;9.52;;
73168;SDS011;61379;59.732;30.468;2024-03-02T07:24:04;11.35;;;10.45;;
73168;SDS011;61379;59.732;30.468;2024-03-02T07:26:32;10.52;;;9.73;;
73168;SDS011;61379;59.732;30.468;2024-03-02T07:28:58;11.05;;;10.15;;
73168;SDS011;61379;59.732;30.468;2024-03-02T07:31:27;10.02;;;9.43;;
73168;SDS011;61379;59.732;30.468;2024-03-02T07:33:53;10.25;;;9.45;;
73168;SDS011;61379;59.732;30.468;2024-03-02T07:36:20;10.48;;;9.57;;
73168;SDS011;61379;59.732;30.468;2024-03-02T07:38:47;9.98;;;9.25;;
73168;SDS011;61379;59.732;30.468;2024-03-02T07:41:15;10.38;;;9.50;;
73168;SDS011;61379;59.732;30.468;2024-03-02T07:43:42;10.18;;;9.27;;
73168;SDS011;61379;59.732;30.468;2024-03-02T07:46:10;9.27;;;8.68;;
73168;SDS011;61379;59.732;30.468;2024-03-02T07:48:39;9.65;;;8.95;;
73168;SDS011;61379;59.732;30.468;2024-03-02T07:51:05;8.82;;;8.23;;
73168;SDS011;61379;59.732;30.468;2024-03-02T07:53:32;10.60;;;9.70;;
73168;SDS011;61379;59.732;30.468;2024-03-02T07:55:59;11.32;;;10.43;;
73168;SDS011;61379;59.732;30.468;2024-03-02T07:58:27;9.45;;;8.80;;
73168;SDS011;61379;59.732;30.468;2024-03-02T08:00:55;9.43;;;8.82;;
73168;SDS011;61379;59.732;30.468;2024-03-02T08:03:22;10.00;;;9.20;;
73168;SDS011;61379;59.732;30.468;2024-03-02T08:05:50;10.48;;;9.77;;
73168;SDS011;61379;59.732;30.468;2024-03-02T08:08:17;10.32;;;9.52;;
73168;SDS011;61379;59.732;30.468;2024-03-02T08:10:44;11.27;;;10.38;;
73168;SDS011;61379;59.732;30.468;2024-03-02T08:13:11;10.18;;;9.40;;
73168;SDS011;61379;59.732;30.468;2024-03-02T08:15:37;10.23;;;9.38;;
73168;SDS011;61379;59.732;30.468;2024-03-02T08:18:04;9.80;;;9.07;;
73168;SDS011;61379;59.732;30.468;2024-03-02T08:20:31;9.50;;;8.75;;
73168;SDS011;61379;59.732;30.468;2024-03-02T08:23:00;10.70;;;9.75;;
73168;SDS011;61379;59.732;30.468;2024-03-02T08:25:26;9.73;;;9.00;;
73168;SDS011;61379;59.732;30.468;2024-03-02T08:27:53;11.00;;;10.10;;
73168;SDS011;61379;59.732;30.468;2024-03-02T08:30:20;10.40;;;9.60;;
73168;SDS011;61379;59.732;30.468;2024-03-02T08:32:47;11.13;;;10.32;;
73168;SDS011;61379;59.732;30.468;2024-03-02T08:35:14;11.52;;;10.63;;
73168;SDS011;61379;59.732;30.468;2024-03-02T08:37:42;10.70;;;9.90;;
73168;SDS011;61379;59.732;30.468;2024-03-02T08:40:11;10.95;;;10.13;;
73168;SDS011;61379;59.732;30.468;2024-03-02T08:42:37;11.15;;;10.35;;
73168;SDS011;61379;59.732;30.468;2024-03-02T08:45:05;11.00;;;10.20;;
73168;SDS011;61379;59.732;30.468;2024-03-02T08:47:32;12.02;;;11.02;;
73168;SDS011;61379;59.732;30.468;2024-03-02T08:50:00;11.70;;;10.65;;
73168;SDS011;61379;59.732;30.468;2024-03-02T08:52:26;12.18;;;11.07;;
73168;SDS011;61379;59.732;30.468;2024-03-02T08:54:53;10.48;;;9.73;;
73168;SDS011;61379;59.732;30.468;2024-03-02T08:57:22;11.73;;;10.82;;
73168;SDS011;61379;59.732;30.468;2024-03-02T08:59:48;11.93;;;11.07;;
73168;SDS011;61379;59.732;30.468;2024-03-02T09:02:15;11.90;;;11.02;;
73168;SDS011;61379;59.732;30.468;2024-03-02T09:04:42;10.55;;;9.80;;
73168;SDS011;61379;59.732;30.468;2024-03-02T09:07:09;11.57;;;10.77;;
73168;SDS011;61379;59.732;30.468;2024-03-02T09:09:36;11.23;;;10.52;;
73168;SDS011;61379;59.732;30.468;2024-03-02T09:12:04;11.65;;;10.82;;
73168;SDS011;61379;59.732;30.468;2024-03-02T09:14:32;12.23;;;11.43;;
73168;SDS011;61379;59.732;30.468;2024-03-02T09:16:59;13.43;;;12.32;;
73168;SDS011;61379;59.732;30.468;2024-03-02T09:19:26;12.68;;;11.77;;
73168;SDS011;61379;59.732;30.468;2024-03-02T09:21:53;11.20;;;10.50;;
73168;SDS011;61379;59.732;30.468;2024-03-02T09:24:21;11.90;;;11.10;;
73168;SDS011;61379;59.732;30.468;2024-03-02T09:26:47;12.10;;;11.20;;
73168;SDS011;61379;59.732;30.468;2024-03-02T09:29:14;12.18;;;11.23;;
73168;SDS011;61379;59.732;30.468;2024-03-02T09:31:43;11.82;;;10.82;;
73168;SDS011;61379;59.732;30.468;2024-03-02T09:34:09;11.68;;;10.70;;
73168;SDS011;61379;59.732;30.468;2024-03-02T09:36:36;11.85;;;10.95;;
73168;SDS011;61379;59.732;30.468;2024-03-02T09:39:03;12.68;;;11.73;;
73168;SDS011;61379;59.732;30.468;2024-03-02T09:41:30;11.45;;;10.65;;
73168;SDS011;61379;59.732;30.468;2024-03-02T09:43:57;11.88;;;11.07;;
73168;SDS011;61379;59.732;30.468;2024-03-02T09:46:24;11.80;;;10.93;;
73168;SDS011;61379;59.732;30.468;2024-03-02T09:48:52;11.73;;;10.73;;
73168;SDS011;61379;59.732;30.468;2024-03-02T09:51:19;12.02;;;11.23;;
73168;SDS011;61379;59.732;30.468;2024-03-02T09:53:46;11.70;;;10.90;;
73168;SDS011;61379;59.732;30.468;2024-03-02T09:56:13;11.35;;;10.55;;
73168;SDS011;61379;59.732;30.468;2024-03-02T09:58:41;11.25;;;10.35;;
73168;SDS011;61379;59.732;30.468;2024-03-02T10:01:09;13.30;;;11.80;;
73168;SDS011;61379;59.732;30.468;2024-03-02T10:03:36;11.93;;;11.02;;
73168;SDS011;61379;59.732;30.468;2024-03-02T10:06:21;12.48;;;11.68;;
73168;SDS011;61379;59.732;30.468;2024-03-02T10:08:48;12.23;;;11.43;;
73168;SDS011;61379;59.732;30.468;2024-03-02T10:11:28;11.98;;;10.95;;
73168;SDS011;61379;59.732;30.468;2024-03-02T10:14:06;11.50;;;10.70;;
73168;SDS011;61379;59.732;30.468;2024-03-02T10:16:37;12.50;;;11.52;;
73168;SDS011;61379;59.732;30.468;2024-03-02T10:19:15;13.60;;;12.55;;
73168;SDS011;61379;59.732;30.468;2024-03-02T10:21:43;13.05;;;12.00;;
73168;SDS011;61379;59.732;30.468;2024-03-02T10:24:10;11.27;;;10.57;;
73168;SDS011;61379;59.732;30.468;2024-03-02T10:26:38;12.07;;;11.07;;
73168;SDS011;61379;59.732;30.468;2024-03-02T10:29:04;10.85;;;10.20;;
73168;SDS011;61379;59.732;30.468;2024-03-02T10:31:31;12.80;;;11.80;;
73168;SDS011;61379;59.732;30.468;2024-03-02T10:33:59;10.77;;;10.18;;
73168;SDS011;61379;59.732;30.468;2024-03-02T10:36:27;12.18;;;11.23;;
73168;SDS011;61379;59.732;30.468;2024-03-02T10:38:57;11.25;;;10.35;;
73168;SDS011;61379;59.732;30.468;2024-03-02T10:43:51;11.30;;;10.60;;
73168;SDS011;61379;59.732;30.468;2024-03-02T10:46:24;13.65;;;12.55;;
73168;SDS011;61379;59.732;30.468;2024-03-02T10:48:53;13.35;;;12.20;;
73168;SDS011;61379;59.732;30.468;2024-03-02T10:51:20;12.18;;;11.18;;
73168;SDS011;61379;59.732;30.468;2024-03-02T10:53:47;12.38;;;11.38;;
73168;SDS011;61379;59.732;30.468;2024-03-02T10:56:16;11.98;;;10.98;;
73168;SDS011;61379;59.732;30.468;2024-03-02T10:58:44;11.45;;;10.55;;
73168;SDS011;61379;59.732;30.468;2024-03-02T11:01:12;11.55;;;10.73;;
73168;SDS011;61379;59.732;30.468;2024-03-02T11:03:40;12.25;;;11.35;;
73168;SDS011;61379;59.732;30.468;2024-03-02T11:06:07;11.40;;;10.55;;
73168;SDS011;61379;59.732;30.468;2024-03-02T11:08:36;12.15;;;11.15;;
73168;SDS011;61379;59.732;30.468;2024-03-02T11:11:06;11.65;;;10.88;;
73168;SDS011;61379;59.732;30.468;2024-03-02T11:13:35;11.77;;;10.68;;
73168;SDS011;61379;59.732;30.468;2024-03-02T11:16:05;11.75;;;10.95;;
73168;SDS011;61379;59.732;30.468;2024-03-02T11:18:33;11.05;;;10.15;;
73168;SDS011;61379;59.732;30.468;2024-03-02T11:21:00;10.73;;;9.93;;
73168;SDS011;61379;59.732;30.468;2024-03-02T11:23:31;11.05;;;10.27;;
73168;SDS011;61379;59.732;30.468;2024-03-02T11:28:41;11.43;;;10.43;;
73168;SDS011;61379;59.732;30.468;2024-03-02T11:31:08;11.10;;;10.27;;
73168;SDS011;61379;59.732;30.468;2024-03-02T11:33:35;12.10;;;11.07;;
73168;SDS011;61379;59.732;30.468;2024-03-02T11:36:02;12.13;;;11.23;;
73168;SDS011;61379;59.732;30.468;2024-03-02T11:38:30;11.95;;;11.05;;
73168;SDS011;61379;59.732;30.468;2024-03-02T11:40:57;11.45;;;10.75;;
73168;SDS011;61379;59.732;30.468;2024-03-02T11:43:25;11.35;;;10.55;;
73168;SDS011;61379;59.732;30.468;2024-03-02T11:45:58;11.70;;;10.90;;
73168;SDS011;61379;59.732;30.468;2024-03-02T11:48:26;12.75;;;11.70;;
73168;SDS011;61379;59.732;30.468;2024-03-02T11:50:53;12.02;;;11.10;;
73168;SDS011;61379;59.732;30.468;2024-03-02T11:53:20;11.02;;;10.23;;
73168;SDS011;61379;59.732;30.468;2024-03-02T11:55:47;11.85;;;11.05;;
73168;SDS011;61379;59.732;30.468;2024-03-02T11:58:16;11.63;;;10.75;;
73168;SDS011;61379;59.732;30.468;2024-03-02T12:00:43;11.63;;;10.73;;
73168;SDS011;61379;59.732;30.468;2024-03-02T12:03:12;11.90;;;11.00;;
73168;SDS011;61379;59.732;30.468;2024-03-02T12:05:39;11.93;;;11.13;;
73168;SDS011;61379;59.732;30.468;2024-03-02T12:08:06;12.13;;;11.23;;
73168;SDS011;61379;59.732;30.468;2024-03-02T12:10:33;11.48;;;10.77;;
73168;SDS011;61379;59.732;30.468;2024-03-02T12:13:02;10.75;;;10.00;;
73168;SDS011;61379;59.732;30.468;2024-03-02T12:15:29;12.82;;;11.63;;
73168;SDS011;61379;59.732;30.468;2024-03-02T12:17:56;12.02;;;11.20;;
73168;SDS011;61379;59.732;30.468;2024-03-02T12:20:25;11.32;;;10.35;;
73168;SDS011;61379;59.732;30.468;2024-03-02T12:22:52;11.95;;;11.05;;
73168;SDS011;61379;59.732;30.468;2024-03-02T12:25:19;10.45;;;9.75;;
73168;SDS011;61379;59.732;30.468;2024-03-02T12:27:46;13.68;;;12.50;;
73168;SDS011;61379;59.732;30.468;2024-03-02T12:30:14;10.90;;;10.10;;
73168;SDS011;61379;59.732;30.468;2024-03-02T12:32:43;10.75;;;10.00;;
73168;SDS011;61379;59.732;30.468;2024-03-02T12:35:10;10.07;;;9.38;;
73168;SDS011;61379;59.732;30.468;2024-03-02T12:40:09;10.27;;;9.48;;
73168;SDS011;61379;59.732;30.468;2024-03-02T12:42:36;11.10;;;10.20;;
73168;SDS011;61379;59.732;30.468;2024-03-02T12:45:03;10.70;;;9.90;;
73168;SDS011;61379;59.732;30.468;2024-03-02T12:47:30;10.75;;;9.73;;
73168;SDS011;61379;59.732;30.468;2024-03-02T12:49:57;10.30;;;9.55;;
73168;SDS011;61379;59.732;30.468;2024-03-02T12:52:24;10.63;;;9.82;;
73168;SDS011;61379;59.732;30.468;2024-03-02T12:54:51;11.30;;;10.50;;
73168;SDS011;61379;59.732;30.468;2024-03-02T12:57:26;11.55;;;10.65;;
73168;SDS011;61379;59.732;30.468;2024-03-02T12:59:56;11.27;;;10.43;;
73168;SDS011;61379;59.732;30.468;2024-03-02T13:02:23;11.40;;;10.50;;
73168;SDS011;61379;59.732;30.468;2024-03-02T13:04:53;11.35;;;10.55;;
73168;SDS011;61379;59.732;30.468;2024-03-02T13:07:20;11.43;;;10.48;;
73168;SDS011;61379;59.732;30.468;2024-03-02T13:09:48;10.90;;;10.10;;
73168;SDS011;61379;59.732;30.468;2024-03-02T13:12:15;10.63;;;9.82;;
73168;SDS011;61379;59.732;30.468;2024-03-02T13:14:43;9.70;;;9.05;;
73168;SDS011;61379;59.732;30.468;2024-03-02T13:17:10;10.00;;;9.30;;
73168;SDS011;61379;59.732;30.468;2024-03-02T13:19:43;11.82;;;10.93;;
73168;SDS011;61379;59.732;30.468;2024-03-02T13:22:10;10.15;;;9.45;;
73168;SDS011;61379;59.732;30.468;2024-03-02T13:24:36;11.23;;;9.55;;
73168;SDS011;61379;59.732;30.468;2024-03-02T13:27:03;11.95;;;11.05;;
73168;SDS011;61379;59.732;30.468;2024-03-02T13:29:30;10.40;;;9.65;;
73168;SDS011;61379;59.732;30.468;2024-03-02T13:31:58;12.10;;;11.18;;
73168;SDS011;61379;59.732;30.468;2024-03-02T13:34:25;11.23;;;10.32;;
73168;SDS011;61379;59.732;30.468;2024-03-02T13:36:52;10.20;;;9.55;;
73168;SDS011;61379;59.732;30.468;2024-03-02T13:39:19;10.77;;;9.90;;
73168;SDS011;61379;59.732;30.468;2024-03-02T13:41:46;12.43;;;11.32;;
73168;SDS011;61379;59.732;30.468;2024-03-02T13:44:18;10.18;;;9.18;;
73168;SDS011;61379;59.732;30.468;2024-03-02T13:46:44;9.90;;;9.07;;
73168;SDS011;61379;59.732;30.468;2024-03-02T13:49:13;10.18;;;9.38;;
73168;SDS011;61379;59.732;30.468;2024-03-02T13:51:40;8.82;;;8.13;;
73168;SDS011;61379;59.732;30.468;2024-03-02T13:54:07;10.20;;;9.35;;
73168;SDS011;61379;59.732;30.468;2024-03-02T13:56:34;10.23;;;9.45;;
73168;SDS011;61379;59.732;30.468;2024-03-02T13:59:01;10.50;;;9.60;;
73168;SDS011;61379;59.732;30.468;2024-03-02T14:01:28;11.70;;;10.60;;
73168;SDS011;61379;59.732;30.468;2024-03-02T14:03:54;9.70;;;9.00;;
73168;SDS011;61379;59.732;30.468;2024-03-02T14:06:23;10.38;;;9.57;;
73168;SDS011;61379;59.732;30.468;2024-03-02T14:08:52;9.23;;;8.52;;
73168;SDS011;61379;59.732;30.468;2024-03-02T14:11:19;10.05;;;9.23;;
73168;SDS011;61379;59.732;30.468;2024-03-02T14:13:45;9.35;;;8.60;;
73168;SDS011;61379;59.732;30.468;2024-03-02T14:16:19;11.60;;;10.60;;
73168;SDS011;61379;59.732;30.468;2024-03-02T14:18:46;11.70;;;10.63;;
73168;SDS011;61379;59.732;30.468;2024-03-02T14:21:12;10.48;;;9.77;;
73168;SDS011;61379;59.732;30.468;2024-03-02T14:23:41;11.10;;;10.15;;
73168;SDS011;61379;59.732;30.468;2024-03-02T14:26:08;11.77;;;10.77;;
73168;SDS011;61379;59.732;30.468;2024-03-02T14:28:34;11.13;;;10.27;;